createdAt,value
2022-10-11T00:00:32.946Z,1.44
2022-10-11T00:02:59.324Z,1.43
2022-10-11T00:05:25.654Z,1.43
2022-10-11T00:07:52.003Z,1.44
2022-10-11T00:10:18.366Z,1.44
2022-10-11T00:12:44.730Z,1.54
2022-10-11T00:15:11.075Z,1.41
2022-10-11T00:17:37.506Z,1.47
2022-10-11T00:20:03.863Z,1.39
2022-10-11T00:22:30.206Z,1.39
2022-10-11T00:24:56.589Z,1.40
2022-10-11T00:27:22.926Z,1.34
2022-10-11T00:29:49.292Z,1.41
2022-10-11T00:32:15.784Z,1.55
2022-10-11T00:34:42.132Z,1.46
2022-10-11T00:37:08.488Z,1.50
2022-10-11T00:39:34.954Z,1.38
2022-10-11T00:42:01.319Z,1.47
2022-10-11T00:44:27.666Z,1.46
2022-10-11T00:46:55.959Z,1.50
2022-10-11T00:49:22.512Z,1.37
2022-10-11T00:51:48.875Z,1.48
2022-10-11T00:54:15.234Z,1.44
2022-10-11T00:56:41.592Z,1.52
2022-10-11T00:59:07.964Z,1.42
2022-10-11T01:01:34.577Z,1.41
2022-10-11T01:04:01.012Z,1.45
2022-10-11T01:06:27.374Z,1.43
2022-10-11T01:08:53.764Z,1.54
2022-10-11T01:11:20.103Z,1.40
2022-10-11T01:13:46.471Z,1.36
2022-10-11T01:16:12.874Z,1.53
2022-10-11T01:18:39.211Z,1.38
2022-10-11T01:21:05.560Z,1.64
2022-10-11T01:23:32.028Z,1.37
2022-10-11T01:25:58.386Z,1.34
2022-10-11T01:28:24.815Z,1.24
2022-10-11T01:30:51.310Z,1.40
2022-10-11T01:33:17.635Z,1.36
2022-10-11T01:35:43.979Z,1.40
2022-10-11T01:38:10.422Z,1.47
2022-10-11T01:40:36.785Z,1.28
2022-10-11T01:43:03.134Z,1.34
2022-10-11T01:45:29.564Z,1.47
2022-10-11T01:47:55.926Z,1.39
2022-10-11T01:50:22.281Z,1.46
2022-10-11T01:52:48.662Z,1.38
2022-10-11T01:55:14.998Z,1.14
2022-10-11T01:57:41.331Z,1.43
2022-10-11T02:00:07.698Z,1.34
2022-10-11T02:02:34.101Z,1.33
2022-10-11T02:05:00.470Z,1.25
2022-10-11T02:07:26.905Z,1.24
2022-10-11T02:09:55.544Z,1.28
2022-10-11T02:12:21.939Z,1.44
2022-10-11T02:14:48.296Z,1.31
2022-10-11T02:17:14.648Z,1.23
2022-10-11T02:19:40.985Z,1.19
2022-10-11T02:22:07.380Z,1.18
2022-10-11T02:24:33.738Z,1.39
2022-10-11T02:27:00.080Z,1.45
2022-10-11T02:29:26.476Z,1.50
2022-10-11T02:31:52.825Z,1.28
2022-10-11T02:34:19.200Z,1.40
2022-10-11T02:36:45.658Z,1.22
2022-10-11T02:39:12.005Z,1.23
2022-10-11T02:41:38.434Z,1.31
2022-10-11T02:44:04.879Z,1.19
2022-10-11T02:46:31.207Z,1.20
2022-10-11T02:48:57.548Z,1.26
2022-10-11T02:51:23.918Z,1.28
2022-10-11T02:53:50.273Z,1.25
2022-10-11T02:56:16.617Z,1.25
2022-10-11T02:58:43.069Z,1.42
2022-10-11T03:01:09.437Z,1.21
2022-10-11T03:03:35.818Z,1.45
2022-10-11T03:06:02.460Z,1.30
2022-10-11T03:08:29.060Z,1.31
2022-10-11T03:10:55.408Z,1.28
2022-10-11T03:13:21.844Z,1.11
2022-10-11T03:15:49.330Z,1.32
2022-10-11T03:18:15.733Z,1.32
2022-10-11T03:20:42.208Z,1.16
2022-10-11T03:23:08.558Z,1.26
2022-10-11T03:25:34.894Z,1.37
2022-10-11T03:28:01.286Z,1.27
2022-10-11T03:30:27.631Z,1.22
2022-10-11T03:32:54.021Z,1.43
2022-10-11T03:35:20.460Z,1.16
2022-10-11T03:37:46.866Z,1.29
2022-10-11T03:40:13.233Z,1.33
2022-10-11T03:42:39.619Z,1.16
2022-10-11T03:45:05.963Z,1.27
2022-10-11T03:47:32.296Z,1.39
2022-10-11T03:49:58.721Z,1.15
2022-10-11T03:52:25.077Z,1.25
2022-10-11T03:54:51.430Z,1.41
2022-10-11T03:57:17.809Z,1.11
2022-10-11T03:59:44.150Z,1.13
2022-10-11T04:02:10.577Z,1.11
2022-10-11T04:04:36.986Z,1.27
2022-10-11T04:07:03.365Z,1.27
2022-10-11T04:09:29.710Z,1.43
2022-10-11T04:11:56.073Z,1.15
2022-10-11T04:14:22.425Z,1.30
2022-10-11T04:16:48.771Z,1.26
2022-10-11T04:19:15.268Z,1.05
2022-10-11T04:21:41.648Z,1.21
2022-10-11T04:24:07.971Z,1.22
2022-10-11T04:26:34.336Z,1.26
2022-10-11T04:29:00.716Z,1.36
2022-10-11T04:31:27.102Z,1.34
2022-10-11T04:33:53.557Z,1.41
2022-10-11T04:36:19.896Z,1.30
2022-10-11T04:38:46.250Z,1.18
2022-10-11T04:41:12.609Z,1.31
2022-10-11T04:43:38.965Z,1.28
2022-10-11T04:46:05.771Z,1.28
2022-10-11T04:48:32.554Z,1.22
2022-10-11T04:50:58.902Z,1.42
2022-10-11T04:53:25.264Z,1.27
2022-10-11T04:55:51.687Z,1.14
2022-10-11T04:58:18.048Z,1.25
2022-10-11T05:00:44.415Z,1.25
2022-10-11T05:03:10.854Z,1.27
2022-10-11T05:05:37.198Z,1.38
2022-10-11T05:08:03.529Z,1.28
2022-10-11T05:10:30.023Z,1.34
2022-10-11T05:12:56.362Z,1.41
2022-10-11T05:15:22.752Z,1.47
2022-10-11T05:17:49.115Z,1.47
2022-10-11T05:20:15.482Z,1.58
2022-10-11T05:22:41.828Z,1.54
2022-10-11T05:25:08.287Z,1.49
2022-10-11T05:27:34.648Z,1.52
2022-10-11T05:30:01.061Z,1.57
2022-10-11T05:32:28.106Z,1.51
2022-10-11T05:34:54.633Z,1.42
2022-10-11T05:37:21.100Z,1.55
2022-10-11T05:39:47.486Z,1.65
2022-10-11T05:42:13.863Z,1.56
2022-10-11T05:44:40.217Z,1.50
2022-10-11T05:47:06.664Z,1.72
2022-10-11T05:49:33.060Z,1.58
2022-10-11T05:51:59.439Z,1.42
2022-10-11T05:54:25.999Z,1.48
2022-10-11T05:56:52.339Z,1.49
2022-10-11T05:59:18.680Z,1.64
2022-10-11T06:01:45.162Z,1.67
2022-10-11T06:04:11.579Z,1.83
2022-10-11T06:06:37.944Z,1.59
2022-10-11T06:09:04.336Z,1.87
2022-10-11T06:11:30.781Z,1.88
2022-10-11T06:13:57.126Z,1.59
2022-10-11T06:16:23.552Z,1.61
2022-10-11T06:18:49.905Z,1.83
2022-10-11T06:21:16.251Z,1.74
2022-10-11T06:23:42.608Z,1.83
2022-10-11T06:26:09.809Z,1.87
2022-10-11T06:28:36.472Z,1.58
2022-10-11T06:31:02.946Z,1.91
2022-10-11T06:33:29.291Z,2.02
2022-10-11T06:35:55.671Z,2.07
2022-10-11T06:38:22.068Z,2.04
2022-10-11T06:40:48.474Z,1.96
2022-10-11T06:43:14.844Z,2.21
2022-10-11T06:45:41.235Z,2.37
2022-10-11T06:48:07.577Z,2.52
2022-10-11T06:50:58.016Z,2.68
2022-10-11T06:53:20.394Z,2.85
2022-10-11T06:55:46.742Z,2.43
2022-10-11T06:58:13.148Z,2.48
2022-10-11T07:00:39.639Z,2.28
2022-10-11T07:03:06.016Z,2.37
2022-10-11T07:05:32.356Z,2.23
2022-10-11T07:08:00.180Z,2.71
2022-10-11T07:10:26.566Z,2.50
2022-10-11T07:12:52.948Z,2.25
2022-10-11T07:15:19.403Z,2.07
2022-10-11T07:17:45.813Z,1.93
2022-10-11T07:20:12.194Z,1.83
2022-10-11T07:22:38.645Z,2.15
2022-10-11T07:25:05.035Z,2.00
2022-10-11T07:27:31.393Z,2.22
2022-10-11T07:29:57.953Z,1.93
2022-10-11T07:32:24.372Z,2.03
2022-10-11T07:34:50.725Z,2.35
2022-10-11T07:37:17.118Z,1.96
2022-10-11T07:39:43.549Z,1.85
2022-10-11T07:42:09.959Z,1.95
2022-10-11T07:44:36.425Z,1.77
2022-10-11T07:47:03.625Z,1.77
2022-10-11T07:49:32.161Z,1.78
2022-10-11T07:51:58.647Z,2.06
2022-10-11T07:54:25.071Z,1.99
2022-10-11T07:56:51.434Z,1.91
2022-10-11T07:59:17.816Z,2.05
2022-10-11T08:01:44.292Z,1.92
2022-10-11T08:04:10.785Z,1.86
2022-10-11T08:06:37.164Z,1.79
2022-10-11T08:09:03.577Z,1.82
2022-10-11T08:11:29.931Z,1.92
2022-10-11T08:13:56.907Z,1.84
2022-10-11T08:16:23.298Z,1.79
2022-10-11T08:18:49.643Z,1.74
2022-10-11T08:21:16.089Z,1.85
2022-10-11T08:23:42.491Z,1.66
2022-10-11T08:26:09.097Z,1.59
2022-10-11T08:28:35.938Z,1.67
2022-10-11T08:31:02.370Z,1.76
2022-10-11T08:33:28.732Z,1.80
2022-10-11T08:35:55.215Z,1.82
2022-10-11T08:38:21.598Z,1.74
2022-10-11T08:40:48.205Z,1.72
2022-10-11T08:43:14.730Z,1.84
2022-10-11T08:45:41.123Z,1.78
2022-10-11T08:48:07.498Z,1.86
2022-10-11T08:50:34.136Z,1.64
2022-10-11T08:53:00.654Z,1.63
2022-10-11T08:55:27.036Z,1.82
2022-10-11T08:57:53.460Z,1.73
2022-10-11T09:00:19.891Z,1.92
2022-10-11T09:03:06.991Z,1.94
2022-10-11T09:05:32.767Z,2.03
2022-10-11T09:07:59.192Z,1.88
2022-10-11T09:10:25.538Z,1.84
2022-10-11T09:12:51.914Z,1.68
2022-10-11T09:15:18.299Z,1.86
2022-10-11T09:17:44.667Z,1.63
2022-10-11T09:20:11.059Z,1.91
2022-10-11T09:22:37.427Z,2.05
2022-10-11T09:25:04.005Z,1.78
2022-10-11T09:27:50.385Z,1.75
2022-10-11T09:30:16.796Z,1.86
2022-10-11T09:32:43.227Z,1.89
2022-10-11T09:35:09.580Z,1.73
2022-10-11T09:37:36.018Z,1.86
2022-10-11T09:40:02.513Z,1.66
2022-10-11T09:42:28.855Z,1.92
2022-10-11T09:44:55.270Z,1.74
2022-10-11T09:47:21.756Z,1.87
2022-10-11T09:49:48.144Z,2.07
2022-10-11T09:52:14.545Z,1.91
2022-10-11T09:54:40.927Z,1.78
2022-10-11T09:57:07.283Z,1.80
2022-10-11T09:59:33.687Z,1.82
2022-10-11T10:02:00.385Z,1.79
2022-10-11T10:04:26.893Z,2.10
2022-10-11T10:06:53.358Z,1.93
2022-10-11T10:09:19.890Z,1.90
2022-10-11T10:11:46.638Z,1.92
2022-10-11T10:14:13.074Z,1.99
2022-10-11T10:16:39.488Z,2.11
2022-10-11T10:19:05.837Z,2.25
2022-10-11T10:21:32.225Z,2.06
2022-10-11T10:23:59.660Z,1.98
2022-10-11T10:26:26.016Z,1.90
2022-10-11T10:28:52.429Z,2.30
2022-10-11T10:31:18.892Z,2.62
2022-10-11T10:33:45.263Z,2.25
2022-10-11T10:36:11.648Z,2.23
2022-10-11T10:38:38.036Z,2.23
2022-10-11T10:41:04.437Z,2.07
2022-10-11T10:43:30.800Z,2.17
2022-10-11T10:45:57.221Z,1.97
2022-10-11T10:48:23.578Z,2.11
2022-10-11T10:50:49.954Z,2.18
2022-10-11T10:53:16.338Z,2.05
2022-10-11T10:55:42.687Z,2.06
2022-10-11T10:58:09.066Z,2.01
2022-10-11T11:00:35.482Z,2.14
2022-10-11T11:03:01.885Z,2.12
2022-10-11T11:05:28.330Z,2.09
2022-10-11T11:07:54.952Z,2.18
2022-10-11T11:10:21.346Z,2.12
2022-10-11T11:12:50.529Z,2.26
2022-10-11T11:15:18.327Z,2.19
2022-10-11T11:17:45.974Z,2.52
2022-10-11T11:20:12.321Z,2.27
2022-10-11T11:22:38.800Z,2.33
2022-10-11T11:25:05.150Z,2.19
2022-10-11T11:27:31.531Z,2.25
2022-10-11T11:29:58.059Z,2.54
2022-10-11T11:32:24.423Z,2.01
2022-10-11T11:34:50.781Z,2.21
2022-10-11T11:37:17.181Z,2.04
2022-10-11T11:39:43.795Z,2.26
2022-10-11T11:42:10.235Z,2.33
2022-10-11T11:44:36.735Z,2.14
2022-10-11T11:47:03.085Z,2.18
2022-10-11T11:49:29.758Z,2.22
2022-10-11T11:51:56.244Z,2.10
2022-10-11T11:54:22.598Z,2.28
2022-10-11T11:56:48.935Z,2.29
2022-10-11T11:59:15.321Z,2.16
2022-10-11T12:01:41.771Z,2.23
2022-10-11T12:04:08.205Z,2.20
2022-10-11T12:06:35.950Z,2.40
2022-10-11T12:09:04.334Z,2.23
2022-10-11T12:11:35.376Z,2.25
2022-10-11T12:14:01.980Z,2.34
2022-10-11T12:16:28.341Z,2.55
2022-10-11T12:18:54.707Z,2.47
2022-10-11T12:21:21.219Z,2.52
2022-10-11T12:23:47.579Z,2.39
2022-10-11T12:26:13.995Z,2.44
2022-10-11T12:28:40.410Z,2.40
2022-10-11T12:31:06.917Z,2.18
2022-10-11T12:33:33.484Z,2.50
2022-10-11T12:36:02.651Z,2.28
2022-10-11T12:38:32.215Z,2.35
2022-10-11T12:40:58.607Z,2.42
2022-10-11T12:43:24.997Z,2.22
2022-10-11T12:45:51.453Z,2.34
2022-10-11T12:48:17.896Z,2.45
2022-10-11T12:50:44.275Z,2.34
2022-10-11T12:53:10.652Z,2.57
2022-10-11T12:55:36.996Z,2.61
2022-10-11T12:58:03.363Z,2.82
2022-10-11T13:00:29.846Z,2.45
2022-10-11T13:02:56.289Z,2.48
2022-10-11T13:05:22.762Z,2.69
2022-10-11T13:07:49.142Z,2.73
2022-10-11T13:10:15.509Z,2.73
2022-10-11T13:12:41.953Z,2.72
2022-10-11T13:15:08.505Z,2.99
2022-10-11T13:17:38.449Z,2.75
2022-10-11T13:20:05.224Z,2.78
2022-10-11T13:22:31.585Z,2.84
2022-10-11T13:24:57.952Z,2.89
2022-10-11T13:27:24.384Z,2.79
2022-10-11T13:29:52.093Z,2.59
2022-10-11T13:32:18.437Z,2.82
2022-10-11T13:34:44.931Z,2.88
2022-10-11T13:37:11.305Z,2.95
2022-10-11T13:39:37.725Z,2.92
2022-10-11T13:42:04.140Z,3.01
2022-10-11T13:44:30.515Z,3.20
2022-10-11T13:46:56.917Z,2.96
2022-10-11T13:49:23.376Z,3.12
2022-10-11T13:51:49.763Z,3.27
2022-10-11T13:54:16.196Z,2.94
2022-10-11T13:56:45.508Z,2.88
2022-10-11T13:59:11.853Z,2.96
2022-10-11T14:01:38.260Z,3.05
2022-10-11T14:04:04.837Z,2.95
2022-10-11T14:06:31.234Z,3.15
2022-10-11T14:08:57.668Z,2.79
2022-10-11T14:11:24.049Z,3.11
2022-10-11T14:13:50.396Z,2.96
2022-10-11T14:16:16.747Z,3.07
2022-10-11T14:18:43.127Z,2.78
2022-10-11T14:21:09.504Z,2.86
2022-10-11T14:23:35.935Z,2.72
2022-10-11T14:26:02.535Z,2.77
2022-10-11T14:28:29.178Z,2.62
2022-10-11T14:30:55.553Z,2.98
2022-10-11T14:33:22.074Z,3.02
2022-10-11T14:35:48.416Z,2.76
2022-10-11T14:38:14.768Z,2.86
2022-10-11T14:40:41.183Z,3.21
2022-10-11T14:43:07.743Z,3.10
2022-10-11T14:45:34.229Z,2.72
2022-10-11T14:48:00.714Z,2.90
2022-10-11T14:50:27.065Z,2.61
2022-10-11T14:52:53.424Z,2.91
2022-10-11T14:55:19.995Z,2.47
2022-10-11T14:57:46.346Z,2.34
2022-10-11T15:00:12.703Z,2.59
2022-10-11T15:02:39.125Z,2.33
2022-10-11T15:05:05.488Z,2.30
2022-10-11T15:07:31.823Z,2.52
2022-10-11T15:09:58.336Z,2.49
2022-10-11T15:12:24.669Z,2.47
2022-10-11T15:14:51.030Z,2.39
2022-10-11T15:17:17.465Z,2.76
2022-10-11T15:19:44.035Z,2.78
2022-10-11T15:22:10.489Z,2.60
2022-10-11T15:24:37.083Z,2.61
2022-10-11T15:27:03.444Z,2.33
2022-10-11T15:29:29.835Z,2.33
2022-10-11T15:31:56.247Z,2.23
2022-10-11T15:34:22.599Z,2.42
2022-10-11T15:36:49.032Z,2.53
2022-10-11T15:39:15.500Z,2.38
2022-10-11T15:41:41.906Z,2.35
2022-10-11T15:44:08.264Z,2.78
2022-10-11T15:46:34.709Z,2.49
2022-10-11T15:49:05.899Z,2.43
2022-10-11T15:51:33.072Z,2.51
2022-10-11T15:53:59.531Z,2.49
2022-10-11T15:56:28.313Z,2.55
2022-10-11T15:58:56.747Z,2.57
2022-10-11T16:01:23.305Z,2.63
2022-10-11T16:03:49.701Z,2.58
2022-10-11T16:06:16.139Z,2.62
2022-10-11T16:08:42.576Z,2.79
2022-10-11T16:11:08.992Z,2.87
2022-10-11T16:13:35.392Z,2.88
2022-10-11T16:16:01.871Z,2.79
2022-10-11T16:18:32.628Z,2.86
2022-10-11T16:21:01.376Z,2.65
2022-10-11T16:23:27.764Z,2.77
2022-10-11T16:25:54.172Z,2.65
2022-10-11T16:28:20.652Z,2.70
2022-10-11T16:30:47.038Z,2.59
2022-10-11T16:33:13.419Z,2.70
2022-10-11T16:35:39.809Z,2.68
2022-10-11T16:38:06.174Z,2.44
2022-10-11T16:40:35.155Z,2.68
2022-10-11T16:43:07.249Z,2.80
2022-10-11T16:45:34.163Z,2.71
2022-10-11T16:48:00.536Z,2.50
2022-10-11T16:50:26.971Z,2.60
2022-10-11T16:52:53.349Z,2.82
2022-10-11T16:55:20.001Z,2.65
2022-10-11T16:57:46.393Z,2.50
2022-10-11T17:00:12.760Z,2.48
2022-10-11T17:02:39.138Z,2.60
2022-10-11T17:05:05.554Z,2.62
2022-10-11T17:07:31.974Z,2.48
2022-10-11T17:09:58.375Z,2.64
2022-10-11T17:12:25.230Z,2.78
2022-10-11T17:14:51.580Z,2.81
2022-10-11T17:17:17.968Z,2.74
2022-10-11T17:19:45.490Z,2.69
2022-10-11T17:22:12.063Z,2.78
2022-10-11T17:24:38.446Z,2.70
2022-10-11T17:27:04.853Z,2.66
2022-10-11T17:29:38.357Z,2.51
2022-10-11T17:32:04.893Z,2.52
2022-10-11T17:34:31.273Z,2.54
2022-10-11T17:36:57.619Z,2.60
2022-10-11T17:39:24.037Z,2.81
2022-10-11T17:41:50.416Z,2.64
2022-10-11T17:44:16.815Z,2.63
2022-10-11T17:46:43.401Z,2.79
2022-10-11T17:49:09.769Z,2.82
2022-10-11T17:51:36.146Z,2.88
2022-10-11T17:54:02.632Z,2.97
2022-10-11T17:56:32.439Z,2.75
2022-10-11T17:59:01.547Z,2.88
2022-10-11T18:01:28.106Z,2.59
2022-10-11T18:03:54.563Z,2.76
2022-10-11T18:06:20.909Z,3.12
2022-10-11T18:08:47.291Z,2.76
2022-10-11T18:11:13.697Z,2.84
2022-10-11T18:13:40.084Z,3.05
2022-10-11T18:16:06.810Z,2.88
2022-10-11T18:18:33.429Z,2.80
2022-10-11T18:20:59.839Z,3.13
2022-10-11T18:23:26.217Z,3.08
2022-10-11T18:25:52.624Z,3.15
2022-10-11T18:28:19.056Z,3.28
2022-10-11T18:30:45.584Z,3.02
2022-10-11T18:33:11.985Z,3.12
2022-10-11T18:35:38.356Z,3.08
2022-10-11T18:38:04.742Z,3.21
2022-10-11T18:40:31.155Z,3.39
2022-10-11T18:42:57.542Z,3.39
2022-10-11T18:45:24.005Z,3.38
2022-10-11T18:47:50.499Z,3.13
2022-10-11T18:50:16.861Z,3.24
2022-10-11T18:52:44.640Z,3.28
2022-10-11T18:55:11.186Z,3.40
2022-10-11T18:57:37.565Z,3.38
2022-10-11T19:00:11.817Z,3.63
2022-10-11T19:02:50.371Z,3.08
2022-10-11T19:05:16.761Z,3.08
2022-10-11T19:07:43.166Z,3.22
2022-10-11T19:10:09.566Z,3.26
2022-10-11T19:12:35.956Z,3.23
2022-10-11T19:15:02.337Z,3.53
2022-10-11T19:17:28.744Z,3.62
2022-10-11T19:19:55.146Z,3.26
2022-10-11T19:22:21.530Z,3.25
2022-10-11T19:24:47.873Z,3.28
2022-10-11T19:27:14.344Z,3.18
2022-10-11T19:29:43.009Z,3.09
2022-10-11T19:32:09.371Z,3.21
2022-10-11T19:34:35.852Z,2.79
2022-10-11T19:37:02.194Z,3.00
2022-10-11T19:39:28.636Z,3.02
2022-10-11T19:41:55.067Z,3.20
2022-10-11T19:44:21.421Z,3.15
2022-10-11T19:46:52.326Z,2.96
2022-10-11T19:49:19.237Z,2.90
2022-10-11T19:51:45.587Z,3.09
2022-10-11T19:54:11.973Z,3.08
2022-10-11T19:56:38.418Z,3.38
2022-10-11T19:59:04.799Z,3.33
2022-10-11T20:01:31.247Z,2.74
2022-10-11T20:03:57.709Z,3.04
2022-10-11T20:06:24.157Z,3.05
2022-10-11T20:09:10.357Z,2.99
2022-10-11T20:11:36.967Z,2.82
2022-10-11T20:14:03.313Z,2.72
2022-10-11T20:16:29.658Z,2.75
2022-10-11T20:18:56.105Z,3.06
2022-10-11T20:21:22.452Z,2.93
2022-10-11T20:23:48.971Z,3.01
2022-10-11T20:26:15.428Z,3.13
2022-10-11T20:28:41.823Z,3.08
2022-10-11T20:31:08.230Z,2.82
2022-10-11T20:33:34.751Z,2.91
2022-10-11T20:36:01.088Z,3.37
2022-10-11T20:38:27.458Z,3.12
2022-10-11T20:40:53.824Z,2.90
2022-10-11T20:43:20.196Z,3.13
2022-10-11T20:45:46.545Z,3.00
2022-10-11T20:48:13.921Z,2.83
2022-10-11T20:50:40.358Z,2.89
2022-10-11T20:53:06.748Z,2.92
2022-10-11T20:55:33.151Z,2.96
2022-10-11T20:57:59.521Z,2.87
2022-10-11T21:00:25.868Z,2.90
2022-10-11T21:02:52.231Z,2.93
2022-10-11T21:05:18.607Z,3.06
2022-10-11T21:07:44.935Z,2.97
2022-10-11T21:10:11.318Z,3.08
2022-10-11T21:12:37.664Z,2.93
2022-10-11T21:15:04.014Z,2.70
2022-10-11T21:17:30.419Z,3.08
2022-10-11T21:19:58.996Z,2.88
2022-10-11T21:22:25.385Z,2.91
2022-10-11T21:24:51.781Z,3.11
2022-10-11T21:27:18.136Z,2.70
2022-10-11T21:29:44.519Z,2.45
2022-10-11T21:32:14.221Z,2.65
2022-10-11T21:34:40.912Z,3.04
2022-10-11T21:37:07.273Z,2.82
2022-10-11T21:39:33.762Z,2.97
2022-10-11T21:42:00.127Z,2.94
2022-10-11T21:44:26.492Z,2.91
2022-10-11T21:47:08.185Z,2.77
2022-10-11T21:49:34.893Z,2.92
2022-10-11T21:52:01.257Z,2.66
2022-10-11T21:54:27.637Z,2.87
2022-10-11T21:56:54.011Z,2.63
2022-10-11T21:59:20.388Z,2.72
2022-10-11T22:01:46.791Z,2.78
2022-10-11T22:04:13.229Z,2.78
2022-10-11T22:06:39.636Z,2.37
2022-10-11T22:09:06.003Z,2.47
2022-10-11T22:11:32.360Z,2.70
2022-10-11T22:13:58.864Z,2.78
2022-10-11T22:16:25.239Z,2.87
2022-10-11T22:18:51.620Z,2.63
2022-10-11T22:21:18.030Z,2.73
2022-10-11T22:23:44.382Z,2.75
2022-10-11T22:26:10.726Z,2.70
2022-10-11T22:28:37.250Z,2.60
2022-10-11T22:31:03.619Z,2.58
2022-10-11T22:33:29.961Z,2.49
2022-10-11T22:35:56.333Z,2.71
2022-10-11T22:38:22.709Z,2.60
2022-10-11T22:40:49.051Z,2.62
2022-10-11T22:43:15.507Z,2.47
2022-10-11T22:45:41.865Z,2.25
2022-10-11T22:48:08.218Z,2.60
2022-10-11T22:50:34.686Z,2.69
2022-10-11T22:53:01.035Z,2.42
2022-10-11T22:55:27.385Z,2.47
2022-10-11T22:57:53.780Z,2.64
2022-10-11T23:00:21.347Z,2.65
2022-10-11T23:02:47.702Z,2.52
2022-10-11T23:05:14.055Z,2.35
2022-10-11T23:07:40.416Z,2.44
2022-10-11T23:10:06.797Z,2.60
2022-10-11T23:12:33.253Z,2.73
2022-10-11T23:14:59.606Z,2.59
2022-10-11T23:17:25.954Z,2.48
2022-10-11T23:19:52.325Z,2.44
2022-10-11T23:22:19.066Z,2.59
2022-10-11T23:24:45.416Z,2.47
2022-10-11T23:27:11.792Z,2.41
2022-10-11T23:29:38.127Z,2.54
2022-10-11T23:32:04.498Z,2.27
2022-10-11T23:34:30.893Z,2.52
2022-10-11T23:36:57.271Z,2.44
2022-10-11T23:39:23.610Z,2.27
2022-10-11T23:41:50.166Z,2.29
2022-10-11T23:44:16.511Z,2.34
2022-10-11T23:46:43.009Z,2.37
2022-10-11T23:49:09.383Z,2.48
2022-10-11T23:51:35.771Z,2.49
2022-10-11T23:54:02.107Z,2.46
2022-10-11T23:56:28.492Z,2.35
2022-10-11T23:58:54.848Z,2.21
